sensor_id;sensor_type;location;lat;lon;timestamp;pressure;altitude;pressure_sealevel;temperature;humidity
62791;BME280;48830;53.426;10.300;2023-01-31T00:01:13;101575.25;;;6.05;100.00
62791;BME280;48830;53.426;10.300;2023-01-31T00:03:40;101584.81;;;6.10;100.00
62791;BME280;48830;53.426;10.300;2023-01-31T00:08:39;101579.06;;;6.14;100.00
62791;BME280;48830;53.426;10.300;2023-01-31T00:11:05;101589.38;;;6.17;100.00
62791;BME280;48830;53.426;10.300;2023-01-31T00:13:30;101593.56;;;6.15;100.00
62791;BME280;48830;53.426;10.300;2023-01-31T00:15:56;101596.09;;;6.15;100.00
62791;BME280;48830;53.426;10.300;2023-01-31T00:18:22;101596.22;;;6.18;100.00
62791;BME280;48830;53.426;10.300;2023-01-31T00:20:47;101597.56;;;6.10;100.00
62791;BME280;48830;53.426;10.300;2023-01-31T00:23:13;101589.31;;;6.15;100.00
62791;BME280;48830;53.426;10.300;2023-01-31T00:25:39;101585.47;;;6.05;100.00
62791;BME280;48830;53.426;10.300;2023-01-31T00:28:05;101587.63;;;6.16;100.00
62791;BME280;48830;53.426;10.300;2023-01-31T00:30:30;101592.25;;;6.05;100.00
62791;BME280;48830;53.426;10.300;2023-01-31T00:32:55;101593.78;;;6.01;100.00
62791;BME280;48830;53.426;10.300;2023-01-31T00:35:23;101599.03;;;5.87;100.00
62791;BME280;48830;53.426;10.300;2023-01-31T00:37:48;101602.28;;;5.84;100.00
62791;BME280;48830;53.426;10.300;2023-01-31T00:40:14;101607.13;;;5.96;100.00
62791;BME280;48830;53.426;10.300;2023-01-31T00:42:39;101612.00;;;5.91;100.00
62791;BME280;48830;53.426;10.300;2023-01-31T00:45:06;101608.19;;;5.83;100.00
62791;BME280;48830;53.426;10.300;2023-01-31T00:47:31;101629.31;;;5.80;100.00
62791;BME280;48830;53.426;10.300;2023-01-31T00:49:56;101621.47;;;5.76;100.00
62791;BME280;48830;53.426;10.300;2023-01-31T00:52:22;101619.28;;;5.84;100.00
62791;BME280;48830;53.426;10.300;2023-01-31T00:54:47;101620.44;;;5.90;100.00
62791;BME280;48830;53.426;10.300;2023-01-31T00:57:13;101606.91;;;5.91;100.00
62791;BME280;48830;53.426;10.300;2023-01-31T00:59:38;101620.03;;;5.99;100.00
62791;BME280;48830;53.426;10.300;2023-01-31T01:02:04;101606.25;;;5.95;100.00
62791;BME280;48830;53.426;10.300;2023-01-31T01:04:30;101614.19;;;6.01;100.00
62791;BME280;48830;53.426;10.300;2023-01-31T01:06:57;101616.16;;;6.07;100.00
62791;BME280;48830;53.426;10.300;2023-01-31T01:09:22;101629.78;;;6.08;100.00
62791;BME280;48830;53.426;10.300;2023-01-31T01:11:48;101630.75;;;6.10;100.00
62791;BME280;48830;53.426;10.300;2023-01-31T01:14:14;101630.09;;;6.14;100.00
62791;BME280;48830;53.426;10.300;2023-01-31T01:16:40;101639.00;;;6.04;100.00
62791;BME280;48830;53.426;10.300;2023-01-31T01:19:12;101659.97;;;6.16;100.00
62791;BME280;48830;53.426;10.300;2023-01-31T01:21:39;101662.19;;;6.09;100.00
62791;BME280;48830;53.426;10.300;2023-01-31T01:24:10;101640.56;;;5.84;100.00
62791;BME280;48830;53.426;10.300;2023-01-31T01:26:37;101631.44;;;5.89;100.00
62791;BME280;48830;53.426;10.300;2023-01-31T01:29:03;101636.91;;;5.79;100.00
62791;BME280;48830;53.426;10.300;2023-01-31T01:31:29;101629.47;;;5.66;100.00
62791;BME280;48830;53.426;10.300;2023-01-31T01:33:56;101628.81;;;5.70;100.00
62791;BME280;48830;53.426;10.300;2023-01-31T01:36:24;101633.81;;;5.50;100.00
62791;BME280;48830;53.426;10.300;2023-01-31T01:38:49;101640.03;;;5.56;100.00
62791;BME280;48830;53.426;10.300;2023-01-31T01:41:15;101641.13;;;5.61;100.00
62791;BME280;48830;53.426;10.300;2023-01-31T01:43:48;101642.81;;;5.60;100.00
62791;BME280;48830;53.426;10.300;2023-01-31T01:48:53;101652.78;;;5.56;100.00
62791;BME280;48830;53.426;10.300;2023-01-31T01:51:22;101647.34;;;5.66;100.00
62791;BME280;48830;53.426;10.300;2023-01-31T01:53:52;101664.69;;;5.73;100.00
62791;BME280;48830;53.426;10.300;2023-01-31T01:56:28;101664.50;;;5.70;100.00
62791;BME280;48830;53.426;10.300;2023-01-31T01:59:03;101667.53;;;5.79;100.00
62791;BME280;48830;53.426;10.300;2023-01-31T02:01:34;101670.00;;;5.77;100.00
62791;BME280;48830;53.426;10.300;2023-01-31T02:04:07;101674.38;;;5.80;100.00
62791;BME280;48830;53.426;10.300;2023-01-31T02:06:33;101672.31;;;5.73;100.00
62791;BME280;48830;53.426;10.300;2023-01-31T02:08:59;101662.84;;;5.70;100.00
62791;BME280;48830;53.426;10.300;2023-01-31T02:11:27;101664.91;;;5.77;100.00
62791;BME280;48830;53.426;10.300;2023-01-31T02:14:07;101676.84;;;5.78;100.00
62791;BME280;48830;53.426;10.300;2023-01-31T02:16:34;101682.59;;;5.74;100.00
62791;BME280;48830;53.426;10.300;2023-01-31T02:19:00;101683.94;;;5.84;100.00
62791;BME280;48830;53.426;10.300;2023-01-31T02:21:38;101685.59;;;5.84;100.00
62791;BME280;48830;53.426;10.300;2023-01-31T02:24:50;101686.19;;;5.78;100.00
62791;BME280;48830;53.426;10.300;2023-01-31T02:27:34;101685.38;;;5.79;100.00
62791;BME280;48830;53.426;10.300;2023-01-31T02:46:52;101697.78;;;5.89;100.00
62791;BME280;48830;53.426;10.300;2023-01-31T02:49:32;101702.19;;;5.92;100.00
62791;BME280;48830;53.426;10.300;2023-01-31T02:55:44;101693.50;;;5.88;100.00
62791;BME280;48830;53.426;10.300;2023-01-31T02:58:21;101687.94;;;5.79;100.00
62791;BME280;48830;53.426;10.300;2023-01-31T03:00:49;101693.75;;;5.93;100.00
62791;BME280;48830;53.426;10.300;2023-01-31T03:03:32;101690.66;;;5.82;100.00
62791;BME280;48830;53.426;10.300;2023-01-31T03:08:33;101682.53;;;5.91;100.00
62791;BME280;48830;53.426;10.300;2023-01-31T03:11:04;101689.44;;;5.92;100.00
62791;BME280;48830;53.426;10.300;2023-01-31T03:13:51;101684.88;;;5.86;100.00
62791;BME280;48830;53.426;10.300;2023-01-31T03:19:19;101673.41;;;5.94;100.00
62791;BME280;48830;53.426;10.300;2023-01-31T03:21:54;101675.97;;;5.94;100.00
62791;BME280;48830;53.426;10.300;2023-01-31T03:24:21;101676.63;;;6.08;100.00
62791;BME280;48830;53.426;10.300;2023-01-31T03:26:52;101682.00;;;5.96;100.00
62791;BME280;48830;53.426;10.300;2023-01-31T03:29:20;101675.22;;;5.97;100.00
62791;BME280;48830;53.426;10.300;2023-01-31T03:31:53;101676.69;;;6.10;100.00
62791;BME280;48830;53.426;10.300;2023-01-31T03:34:20;101671.94;;;5.99;100.00
62791;BME280;48830;53.426;10.300;2023-01-31T03:37:07;101678.44;;;6.11;100.00
62791;BME280;48830;53.426;10.300;2023-01-31T03:39:52;101682.31;;;5.86;100.00
62791;BME280;48830;53.426;10.300;2023-01-31T03:45:37;101683.13;;;5.85;100.00
62791;BME280;48830;53.426;10.300;2023-01-31T03:47:56;101683.28;;;5.88;100.00
62791;BME280;48830;53.426;10.300;2023-01-31T03:50:36;101663.13;;;5.93;100.00
62791;BME280;48830;53.426;10.300;2023-01-31T03:56:07;101685.13;;;5.57;100.00
62791;BME280;48830;53.426;10.300;2023-01-31T03:58:44;101687.94;;;5.45;100.00
62791;BME280;48830;53.426;10.300;2023-01-31T04:01:13;101677.03;;;5.31;100.00
62791;BME280;48830;53.426;10.300;2023-01-31T04:03:42;101684.66;;;5.47;100.00
62791;BME280;48830;53.426;10.300;2023-01-31T04:06:10;101689.31;;;5.38;100.00
62791;BME280;48830;53.426;10.300;2023-01-31T04:08:37;101687.72;;;5.40;100.00
62791;BME280;48830;53.426;10.300;2023-01-31T04:11:09;101686.75;;;5.55;100.00
62791;BME280;48830;53.426;10.300;2023-01-31T04:13:36;101683.69;;;5.62;100.00
62791;BME280;48830;53.426;10.300;2023-01-31T04:16:03;101679.53;;;5.64;100.00
62791;BME280;48830;53.426;10.300;2023-01-31T04:18:28;101675.81;;;5.75;100.00
62791;BME280;48830;53.426;10.300;2023-01-31T04:20:54;101682.38;;;5.70;100.00
62791;BME280;48830;53.426;10.300;2023-01-31T04:23:19;101681.38;;;5.66;100.00
62791;BME280;48830;53.426;10.300;2023-01-31T04:25:45;101677.66;;;5.43;100.00
62791;BME280;48830;53.426;10.300;2023-01-31T04:28:11;101674.31;;;5.44;100.00
62791;BME280;48830;53.426;10.300;2023-01-31T04:30:36;101664.72;;;5.57;100.00
62791;BME280;48830;53.426;10.300;2023-01-31T04:33:02;101664.88;;;5.60;100.00
62791;BME280;48830;53.426;10.300;2023-01-31T04:35:27;101662.16;;;5.57;100.00
62791;BME280;48830;53.426;10.300;2023-01-31T04:37:53;101654.97;;;5.66;100.00
62791;BME280;48830;53.426;10.300;2023-01-31T04:40:18;101662.09;;;5.55;100.00
62791;BME280;48830;53.426;10.300;2023-01-31T04:42:44;101661.75;;;5.65;100.00
62791;BME280;48830;53.426;10.300;2023-01-31T04:45:10;101654.13;;;5.65;100.00
62791;BME280;48830;53.426;10.300;2023-01-31T04:47:35;101651.91;;;5.73;100.00
62791;BME280;48830;53.426;10.300;2023-01-31T04:50:01;101655.31;;;5.56;100.00
62791;BME280;48830;53.426;10.300;2023-01-31T04:52:26;101654.78;;;5.79;100.00
62791;BME280;48830;53.426;10.300;2023-01-31T04:54:52;101650.69;;;5.83;100.00
62791;BME280;48830;53.426;10.300;2023-01-31T04:57:17;101655.16;;;5.87;100.00
62791;BME280;48830;53.426;10.300;2023-01-31T04:59:43;101663.03;;;5.91;100.00
62791;BME280;48830;53.426;10.300;2023-01-31T05:02:08;101664.31;;;5.83;100.00
62791;BME280;48830;53.426;10.300;2023-01-31T05:04:34;101652.13;;;5.94;100.00
62791;BME280;48830;53.426;10.300;2023-01-31T05:06:59;101649.91;;;6.01;100.00
62791;BME280;48830;53.426;10.300;2023-01-31T05:09:24;101651.94;;;5.91;100.00
62791;BME280;48830;53.426;10.300;2023-01-31T05:11:50;101655.69;;;5.97;100.00
62791;BME280;48830;53.426;10.300;2023-01-31T05:14:16;101645.09;;;6.08;100.00
62791;BME280;48830;53.426;10.300;2023-01-31T05:16:42;101651.25;;;5.93;100.00
62791;BME280;48830;53.426;10.300;2023-01-31T05:19:14;101653.00;;;5.94;100.00
62791;BME280;48830;53.426;10.300;2023-01-31T05:21:39;101656.63;;;5.99;100.00
62791;BME280;48830;53.426;10.300;2023-01-31T05:24:23;101657.84;;;6.08;100.00
62791;BME280;48830;53.426;10.300;2023-01-31T05:26:49;101653.00;;;5.94;100.00
62791;BME280;48830;53.426;10.300;2023-01-31T05:29:17;101656.63;;;5.99;100.00
62791;BME280;48830;53.426;10.300;2023-01-31T05:31:43;101655.91;;;6.02;100.00
62791;BME280;48830;53.426;10.300;2023-01-31T05:34:09;101654.88;;;6.16;100.00
62791;BME280;48830;53.426;10.300;2023-01-31T05:36:36;101651.69;;;6.20;100.00
62791;BME280;48830;53.426;10.300;2023-01-31T05:39:01;101649.50;;;6.10;100.00
62791;BME280;48830;53.426;10.300;2023-01-31T05:41:27;101655.03;;;6.19;100.00
62791;BME280;48830;53.426;10.300;2023-01-31T05:43:52;101660.22;;;6.03;100.00
62791;BME280;48830;53.426;10.300;2023-01-31T05:46:17;101648.84;;;6.14;100.00
62791;BME280;48830;53.426;10.300;2023-01-31T05:48:43;101650.06;;;6.04;100.00
62791;BME280;48830;53.426;10.300;2023-01-31T05:51:08;101637.97;;;6.00;100.00
62791;BME280;48830;53.426;10.300;2023-01-31T05:53:34;101641.31;;;5.99;100.00
62791;BME280;48830;53.426;10.300;2023-01-31T05:55:59;101646.44;;;5.99;100.00
62791;BME280;48830;53.426;10.300;2023-01-31T05:58:24;101631.69;;;6.12;100.00
62791;BME280;48830;53.426;10.300;2023-01-31T06:00:54;101641.91;;;6.12;100.00
62791;BME280;48830;53.426;10.300;2023-01-31T06:03:20;101632.00;;;6.00;100.00
62791;BME280;48830;53.426;10.300;2023-01-31T06:05:45;101637.09;;;6.00;100.00
62791;BME280;48830;53.426;10.300;2023-01-31T06:08:11;101632.22;;;6.04;100.00
62791;BME280;48830;53.426;10.300;2023-01-31T06:10:38;101620.16;;;6.02;100.00
62791;BME280;48830;53.426;10.300;2023-01-31T06:13:03;101636.25;;;5.83;100.00
62791;BME280;48830;53.426;10.300;2023-01-31T06:15:31;101626.53;;;6.10;100.00
62791;BME280;48830;53.426;10.300;2023-01-31T06:17:57;101631.41;;;6.05;100.00
62791;BME280;48830;53.426;10.300;2023-01-31T06:20:22;101638.75;;;6.17;100.00
62791;BME280;48830;53.426;10.300;2023-01-31T06:22:48;101628.19;;;6.10;100.00
62791;BME280;48830;53.426;10.300;2023-01-31T06:25:14;101626.75;;;6.15;100.00
62791;BME280;48830;53.426;10.300;2023-01-31T06:27:40;101631.13;;;5.99;100.00
62791;BME280;48830;53.426;10.300;2023-01-31T06:30:06;101624.84;;;6.11;100.00
62791;BME280;48830;53.426;10.300;2023-01-31T06:32:31;101625.94;;;6.16;100.00
62791;BME280;48830;53.426;10.300;2023-01-31T06:34:57;101614.31;;;6.22;100.00
62791;BME280;48830;53.426;10.300;2023-01-31T06:37:22;101611.53;;;6.18;100.00
62791;BME280;48830;53.426;10.300;2023-01-31T06:39:48;101610.94;;;6.23;100.00
62791;BME280;48830;53.426;10.300;2023-01-31T06:42:13;101605.34;;;6.13;100.00
62791;BME280;48830;53.426;10.300;2023-01-31T06:44:38;101603.38;;;6.25;100.00
62791;BME280;48830;53.426;10.300;2023-01-31T06:47:04;101599.47;;;6.14;100.00
62791;BME280;48830;53.426;10.300;2023-01-31T06:49:29;101601.50;;;6.21;100.00
62791;BME280;48830;53.426;10.300;2023-01-31T06:51:55;101605.13;;;6.26;100.00
62791;BME280;48830;53.426;10.300;2023-01-31T06:54:21;101595.34;;;6.35;100.00
62791;BME280;48830;53.426;10.300;2023-01-31T06:56:46;101591.56;;;6.27;100.00
62791;BME280;48830;53.426;10.300;2023-01-31T06:59:12;101584.53;;;6.41;100.00
62791;BME280;48830;53.426;10.300;2023-01-31T07:01:37;101572.75;;;6.25;100.00
62791;BME280;48830;53.426;10.300;2023-01-31T07:04:03;101576.34;;;6.11;100.00
62791;BME280;48830;53.426;10.300;2023-01-31T07:06:28;101565.22;;;6.28;100.00
62791;BME280;48830;53.426;10.300;2023-01-31T07:08:54;101570.09;;;6.23;100.00
62791;BME280;48830;53.426;10.300;2023-01-31T07:11:19;101557.63;;;6.29;100.00
62791;BME280;48830;53.426;10.300;2023-01-31T07:13:45;101554.78;;;6.23;100.00
62791;BME280;48830;53.426;10.300;2023-01-31T07:16:13;101560.03;;;6.26;100.00
62791;BME280;48830;53.426;10.300;2023-01-31T07:18:38;101553.84;;;6.21;100.00
62791;BME280;48830;53.426;10.300;2023-01-31T07:21:04;101542.78;;;6.21;100.00
62791;BME280;48830;53.426;10.300;2023-01-31T07:23:30;101531.31;;;6.30;100.00
62791;BME280;48830;53.426;10.300;2023-01-31T07:25:56;101522.81;;;6.12;100.00
62791;BME280;48830;53.426;10.300;2023-01-31T07:28:21;101522.34;;;6.21;100.00
62791;BME280;48830;53.426;10.300;2023-01-31T07:30:46;101520.66;;;6.21;100.00
62791;BME280;48830;53.426;10.300;2023-01-31T07:33:12;101507.84;;;6.20;100.00
62791;BME280;48830;53.426;10.300;2023-01-31T07:35:40;101510.91;;;6.13;100.00
62791;BME280;48830;53.426;10.300;2023-01-31T07:38:06;101502.47;;;6.14;100.00
62791;BME280;48830;53.426;10.300;2023-01-31T07:40:31;101503.13;;;6.29;100.00
62791;BME280;48830;53.426;10.300;2023-01-31T07:42:58;101498.84;;;6.09;100.00
62791;BME280;48830;53.426;10.300;2023-01-31T07:45:24;101498.88;;;6.29;100.00
62791;BME280;48830;53.426;10.300;2023-01-31T07:47:50;101499.91;;;6.33;100.00
62791;BME280;48830;53.426;10.300;2023-01-31T07:50:16;101495.47;;;6.48;100.00
62791;BME280;48830;53.426;10.300;2023-01-31T07:52:41;101486.34;;;6.34;100.00
62791;BME280;48830;53.426;10.300;2023-01-31T07:55:07;101488.88;;;6.34;100.00
62791;BME280;48830;53.426;10.300;2023-01-31T07:57:33;101480.00;;;6.45;100.00
62791;BME280;48830;53.426;10.300;2023-01-31T07:59:58;101476.38;;;6.40;100.00
62791;BME280;48830;53.426;10.300;2023-01-31T08:02:25;101480.00;;;6.45;100.00
62791;BME280;48830;53.426;10.300;2023-01-31T08:05:09;101476.47;;;6.42;100.00
62791;BME280;48830;53.426;10.300;2023-01-31T08:07:35;101477.03;;;6.55;100.00
62791;BME280;48830;53.426;10.300;2023-01-31T08:10:01;101475.56;;;6.61;100.00
62791;BME280;48830;53.426;10.300;2023-01-31T08:12:26;101471.94;;;6.55;100.00
62791;BME280;48830;53.426;10.300;2023-01-31T08:14:52;101470.03;;;6.30;100.00
62791;BME280;48830;53.426;10.300;2023-01-31T08:17:17;101461.50;;;6.51;100.00
62791;BME280;48830;53.426;10.300;2023-01-31T08:19:43;101458.00;;;6.68;100.00
62791;BME280;48830;53.426;10.300;2023-01-31T08:22:08;101461.78;;;6.78;100.00
62791;BME280;48830;53.426;10.300;2023-01-31T08:24:34;101450.28;;;6.88;100.00
62791;BME280;48830;53.426;10.300;2023-01-31T08:27:00;101442.78;;;6.71;100.00
62791;BME280;48830;53.426;10.300;2023-01-31T08:29:26;101433.19;;;6.66;100.00
62791;BME280;48830;53.426;10.300;2023-01-31T08:31:51;101428.13;;;6.67;100.00
62791;BME280;48830;53.426;10.300;2023-01-31T08:34:17;101423.66;;;6.62;100.00
62791;BME280;48830;53.426;10.300;2023-01-31T08:36:43;101420.66;;;6.72;100.00
62791;BME280;48830;53.426;10.300;2023-01-31T08:39:09;101412.63;;;7.04;100.00
62791;BME280;48830;53.426;10.300;2023-01-31T08:41:36;101429.22;;;6.72;100.00
62791;BME280;48830;53.426;10.300;2023-01-31T08:44:03;101431.09;;;6.97;100.00
62791;BME280;48830;53.426;10.300;2023-01-31T08:46:30;101432.34;;;6.86;100.00
62791;BME280;48830;53.426;10.300;2023-01-31T08:48:56;101439.81;;;6.81;100.00
62791;BME280;48830;53.426;10.300;2023-01-31T08:51:22;101419.59;;;7.08;100.00
62791;BME280;48830;53.426;10.300;2023-01-31T08:53:48;101419.84;;;6.94;100.00
62791;BME280;48830;53.426;10.300;2023-01-31T08:56:14;101419.84;;;6.94;100.00
62791;BME280;48830;53.426;10.300;2023-01-31T08:58:41;101419.31;;;6.80;100.00
62791;BME280;48830;53.426;10.300;2023-01-31T09:01:13;101409.56;;;6.92;100.00
62791;BME280;48830;53.426;10.300;2023-01-31T09:03:39;101403.41;;;6.87;100.00
62791;BME280;48830;53.426;10.300;2023-01-31T09:06:07;101394.50;;;7.21;100.00
62791;BME280;48830;53.426;10.300;2023-01-31T09:08:34;101380.44;;;7.09;100.00
62791;BME280;48830;53.426;10.300;2023-01-31T09:11:00;101386.03;;;7.22;100.00
62791;BME280;48830;53.426;10.300;2023-01-31T09:13:27;101381.72;;;7.21;100.00
62791;BME280;48830;53.426;10.300;2023-01-31T09:16:00;101374.28;;;7.04;100.00
62791;BME280;48830;53.426;10.300;2023-01-31T09:18:26;101372.31;;;7.20;100.00
62791;BME280;48830;53.426;10.300;2023-01-31T09:20:51;101376.97;;;7.07;100.00
62791;BME280;48830;53.426;10.300;2023-01-31T09:23:17;101371.34;;;7.16;100.00
62791;BME280;48830;53.426;10.300;2023-01-31T09:25:51;101357.56;;;7.13;100.00
62791;BME280;48830;53.426;10.300;2023-01-31T09:28:16;101355.88;;;7.13;100.00
62791;BME280;48830;53.426;10.300;2023-01-31T09:30:41;101353.94;;;6.85;100.00
62791;BME280;48830;53.426;10.300;2023-01-31T09:33:07;101349.06;;;6.91;100.00
62791;BME280;48830;53.426;10.300;2023-01-31T09:35:32;101336.50;;;6.97;100.00
62791;BME280;48830;53.426;10.300;2023-01-31T09:37:58;101336.50;;;7.20;100.00
62791;BME280;48830;53.426;10.300;2023-01-31T09:40:24;101323.28;;;6.85;100.00
62791;BME280;48830;53.426;10.300;2023-01-31T09:42:53;101326.69;;;7.08;100.00
62791;BME280;48830;53.426;10.300;2023-01-31T09:47:54;101311.94;;;7.23;100.00
62791;BME280;48830;53.426;10.300;2023-01-31T09:52:57;101304.16;;;6.98;100.00
62791;BME280;48830;53.426;10.300;2023-01-31T09:55:34;101299.47;;;6.86;100.00
62791;BME280;48830;53.426;10.300;2023-01-31T09:58:24;101288.34;;;7.08;100.00
62791;BME280;48830;53.426;10.300;2023-01-31T10:00:58;101271.97;;;7.03;100.00
62791;BME280;48830;53.426;10.300;2023-01-31T10:06:39;101262.78;;;6.84;100.00
62791;BME280;48830;53.426;10.300;2023-01-31T10:11:40;101254.47;;;6.90;100.00
62791;BME280;48830;53.426;10.300;2023-01-31T10:14:47;101253.47;;;6.86;100.00
62791;BME280;48830;53.426;10.300;2023-01-31T10:20:17;101243.25;;;6.86;100.00
62791;BME280;48830;53.426;10.300;2023-01-31T10:23:06;101241.00;;;7.18;100.00
62791;BME280;48830;53.426;10.300;2023-01-31T10:30:54;101236.97;;;7.00;100.00
62791;BME280;48830;53.426;10.300;2023-01-31T10:33:34;101241.72;;;6.91;100.00
62791;BME280;48830;53.426;10.300;2023-01-31T10:36:13;101236.16;;;6.79;100.00
62791;BME280;48830;53.426;10.300;2023-01-31T10:47:01;101218.47;;;7.07;100.00
62791;BME280;48830;53.426;10.300;2023-01-31T10:49:27;101211.25;;;7.20;100.00
62791;BME280;48830;53.426;10.300;2023-01-31T10:57:18;101189.75;;;7.15;100.00
62791;BME280;48830;53.426;10.300;2023-01-31T10:59:45;101196.50;;;7.13;100.00
62791;BME280;48830;53.426;10.300;2023-01-31T11:02:21;101175.06;;;7.09;100.00
62791;BME280;48830;53.426;10.300;2023-01-31T11:04:49;101172.81;;;7.17;100.00
62791;BME280;48830;53.426;10.300;2023-01-31T11:07:16;101168.88;;;7.02;100.00
62791;BME280;48830;53.426;10.300;2023-01-31T11:09:47;101167.19;;;7.03;100.00
62791;BME280;48830;53.426;10.300;2023-01-31T11:12:13;101161.41;;;7.08;100.00
62791;BME280;48830;53.426;10.300;2023-01-31T11:14:38;101143.94;;;7.21;100.00
62791;BME280;48830;53.426;10.300;2023-01-31T11:17:20;101146.75;;;7.03;100.00
62791;BME280;48830;53.426;10.300;2023-01-31T11:19:49;101135.88;;;7.34;100.00
62791;BME280;48830;53.426;10.300;2023-01-31T11:22:25;101134.56;;;7.45;100.00
62791;BME280;48830;53.426;10.300;2023-01-31T11:24:51;101139.69;;;7.45;100.00
62791;BME280;48830;53.426;10.300;2023-01-31T11:27:25;101149.38;;;7.30;100.00
62791;BME280;48830;53.426;10.300;2023-01-31T11:29:52;101155.16;;;7.48;100.00
62791;BME280;48830;53.426;10.300;2023-01-31T11:32:31;101155.34;;;7.54;100.00
62791;BME280;48830;53.426;10.300;2023-01-31T11:35:43;101137.75;;;7.38;100.00
62791;BME280;48830;53.426;10.300;2023-01-31T11:37:59;101132.31;;;7.54;100.00
62791;BME280;48830;53.426;10.300;2023-01-31T11:40:30;101123.72;;;7.52;100.00
62791;BME280;48830;53.426;10.300;2023-01-31T11:45:53;101129.47;;;7.72;100.00
62791;BME280;48830;53.426;10.300;2023-01-31T11:50:55;101118.53;;;7.76;100.00
62791;BME280;48830;53.426;10.300;2023-01-31T11:53:25;101112.94;;;7.88;100.00
62791;BME280;48830;53.426;10.300;2023-01-31T11:55:54;101125.41;;;7.79;100.00
62791;BME280;48830;53.426;10.300;2023-01-31T11:58:36;101123.53;;;8.00;100.00
62791;BME280;48830;53.426;10.300;2023-01-31T12:01:12;101105.78;;;7.78;100.00
62791;BME280;48830;53.426;10.300;2023-01-31T12:03:45;101109.47;;;7.86;100.00
62791;BME280;48830;53.426;10.300;2023-01-31T12:06:25;101104.03;;;8.04;100.00
62791;BME280;48830;53.426;10.300;2023-01-31T12:08:57;101097.22;;;8.04;100.00
62791;BME280;48830;53.426;10.300;2023-01-31T12:11:31;101088.41;;;7.96;100.00
62791;BME280;48830;53.426;10.300;2023-01-31T12:14:14;101087.09;;;8.07;100.00
62791;BME280;48830;53.426;10.300;2023-01-31T12:16:41;101074.06;;;8.01;100.00
62791;BME280;48830;53.426;10.300;2023-01-31T12:25:11;101066.47;;;8.03;100.00
62791;BME280;48830;53.426;10.300;2023-01-31T12:32:51;101061.66;;;8.13;100.00
62791;BME280;48830;53.426;10.300;2023-01-31T12:49:40;101039.16;;;8.33;100.00
62791;BME280;48830;53.426;10.300;2023-01-31T12:52:24;101033.47;;;8.42;100.00
62791;BME280;48830;53.426;10.300;2023-01-31T12:57:38;101042.16;;;8.47;100.00
62791;BME280;48830;53.426;10.300;2023-01-31T13:05:50;101029.25;;;8.44;100.00
62791;BME280;48830;53.426;10.300;2023-01-31T13:08:21;101010.63;;;8.50;100.00
62791;BME280;48830;53.426;10.300;2023-01-31T13:11:14;101013.41;;;8.57;100.00
62791;BME280;48830;53.426;10.300;2023-01-31T13:13:55;101014.09;;;8.50;100.00
62791;BME280;48830;53.426;10.300;2023-01-31T13:16:30;101013.31;;;8.54;100.00
62791;BME280;48830;53.426;10.300;2023-01-31T13:19:02;101013.13;;;8.78;100.00
62791;BME280;48830;53.426;10.300;2023-01-31T13:21:33;101010.50;;;8.77;100.00
62791;BME280;48830;53.426;10.300;2023-01-31T13:24:07;101009.47;;;8.70;100.00
62791;BME280;48830;53.426;10.300;2023-01-31T13:26:41;101007.84;;;8.72;100.00
62791;BME280;48830;53.426;10.300;2023-01-31T13:29:31;101001.00;;;8.73;100.00
62791;BME280;48830;53.426;10.300;2023-01-31T13:32:03;100991.56;;;8.72;100.00
62791;BME280;48830;53.426;10.300;2023-01-31T13:34:43;100997.75;;;8.80;100.00
62791;BME280;48830;53.426;10.300;2023-01-31T13:37:12;101008.69;;;8.73;100.00
62791;BME280;48830;53.426;10.300;2023-01-31T13:39:42;101010.72;;;8.86;100.00
62791;BME280;48830;53.426;10.300;2023-01-31T13:42:14;101018.38;;;8.83;100.00
62791;BME280;48830;53.426;10.300;2023-01-31T13:44:41;101014.03;;;8.82;100.00
62791;BME280;48830;53.426;10.300;2023-01-31T13:49:53;101011.56;;;8.85;100.00
62791;BME280;48830;53.426;10.300;2023-01-31T13:52:30;101013.53;;;8.95;100.00
62791;BME280;48830;53.426;10.300;2023-01-31T13:55:25;100983.53;;;8.91;100.00
62791;BME280;48830;53.426;10.300;2023-01-31T13:58:21;100995.84;;;9.04;100.00
62791;BME280;48830;53.426;10.300;2023-01-31T14:00:48;100977.88;;;9.04;100.00
62791;BME280;48830;53.426;10.300;2023-01-31T14:03:19;100972.31;;;9.58;100.00
62791;BME280;48830;53.426;10.300;2023-01-31T14:05:59;100968.84;;;9.20;100.00
62791;BME280;48830;53.426;10.300;2023-01-31T14:13:48;100961.53;;;8.99;100.00
62791;BME280;48830;53.426;10.300;2023-01-31T14:16:40;100962.09;;;9.24;100.00
62791;BME280;48830;53.426;10.300;2023-01-31T14:19:33;100968.22;;;9.30;100.00
62791;BME280;48830;53.426;10.300;2023-01-31T14:22:19;100968.06;;;9.23;100.00
62791;BME280;48830;53.426;10.300;2023-01-31T14:32:34;100951.88;;;8.89;100.00
62791;BME280;48830;53.426;10.300;2023-01-31T14:37:56;100971.69;;;8.96;100.00
62791;BME280;48830;53.426;10.300;2023-01-31T14:40:44;100956.16;;;8.90;100.00
62791;BME280;48830;53.426;10.300;2023-01-31T14:57:45;100942.66;;;8.97;100.00
62791;BME280;48830;53.426;10.300;2023-01-31T15:03:07;100965.22;;;9.10;100.00
62791;BME280;48830;53.426;10.300;2023-01-31T15:05:43;100957.31;;;9.03;100.00
62791;BME280;48830;53.426;10.300;2023-01-31T15:16:30;100968.59;;;9.09;100.00
62791;BME280;48830;53.426;10.300;2023-01-31T15:19:20;100955.41;;;8.94;100.00
62791;BME280;48830;53.426;10.300;2023-01-31T15:21:53;100949.38;;;8.92;100.00
62791;BME280;48830;53.426;10.300;2023-01-31T15:24:35;100952.28;;;9.06;100.00
62791;BME280;48830;53.426;10.300;2023-01-31T15:27:06;100955.53;;;8.99;100.00